createdAt,value
2022-08-07T00:01:43.231Z,17.00
2022-08-07T00:08:33.426Z,16.80
2022-08-07T00:15:46.899Z,16.80
2022-08-07T00:22:54.253Z,16.70
2022-08-07T00:29:51.190Z,16.50
2022-08-07T00:36:54.637Z,16.52
2022-08-07T00:44:00.726Z,16.60
2022-08-07T00:50:51.191Z,16.50
2022-08-07T00:57:56.267Z,16.40
2022-08-07T01:04:59.403Z,16.50
2022-08-07T01:12:09.489Z,16.50
2022-08-07T01:19:25.786Z,16.44
2022-08-07T01:26:29.071Z,16.40
2022-08-07T01:33:55.662Z,16.36
2022-08-07T01:40:55.870Z,16.18
2022-08-07T01:48:20.088Z,16.20
2022-08-07T01:55:22.556Z,16.10
2022-08-07T02:03:12.462Z,16.00
2022-08-07T02:09:52.931Z,16.10
2022-08-07T02:17:01.110Z,16.00
2022-08-07T02:24:06.337Z,15.90
2022-08-07T02:31:18.649Z,15.72
2022-08-07T02:38:28.091Z,15.70
2022-08-07T02:45:58.143Z,15.70
2022-08-07T02:52:48.935Z,15.70
2022-08-07T03:00:00.847Z,15.60
2022-08-07T03:07:10.445Z,15.60
2022-08-07T03:14:13.855Z,15.52
2022-08-07T03:21:19.043Z,15.46
2022-08-07T03:28:38.426Z,15.46
2022-08-07T03:35:44.008Z,15.30
2022-08-07T03:42:33.359Z,15.20
2022-08-07T03:49:36.201Z,15.20
2022-08-07T03:56:39.447Z,15.10
2022-08-07T04:04:04.944Z,15.00
2022-08-07T04:12:23.310Z,15.00
2022-08-07T04:18:59.738Z,14.90
2022-08-07T04:25:55.727Z,14.90
2022-08-07T04:32:59.528Z,14.90
2022-08-07T04:40:02.920Z,15.00
2022-08-07T04:47:23.690Z,15.00
2022-08-07T04:54:50.902Z,15.10
2022-08-07T05:01:58.261Z,15.20
2022-08-07T05:09:02.416Z,15.40
2022-08-07T05:16:11.531Z,15.58
2022-08-07T05:23:16.169Z,15.80
2022-08-07T05:30:25.046Z,15.92
2022-08-07T05:37:40.764Z,16.10
2022-08-07T05:44:29.676Z,16.30
2022-08-07T05:51:33.394Z,16.50
2022-08-07T05:58:49.226Z,16.80
2022-08-07T06:05:56.571Z,17.20
2022-08-07T06:13:00.185Z,17.40
2022-08-07T06:20:05.630Z,17.40
2022-08-07T06:27:07.818Z,17.40
2022-08-07T06:34:10.844Z,17.58
2022-08-07T06:41:13.221Z,17.70
2022-08-07T06:48:00.426Z,17.80
2022-08-07T06:55:31.625Z,18.00
2022-08-07T07:02:54.512Z,18.20
2022-08-07T07:10:01.497Z,18.56
2022-08-07T07:17:04.895Z,18.80
2022-08-07T07:24:08.378Z,19.10
2022-08-07T07:31:17.213Z,19.30
2022-08-07T07:38:18.073Z,19.58
2022-08-07T07:44:58.947Z,19.70
2022-08-07T07:52:01.982Z,20.00
2022-08-07T07:59:14.824Z,20.20
2022-08-07T08:06:20.169Z,20.40
2022-08-07T08:13:23.930Z,20.30
2022-08-07T08:20:45.780Z,20.30
2022-08-07T08:27:56.656Z,20.20
2022-08-07T08:35:04.838Z,20.20
2022-08-07T08:42:17.009Z,20.20
2022-08-07T08:50:05.053Z,20.60
2022-08-07T08:57:27.517Z,20.60
2022-08-07T09:04:33.098Z,20.50
2022-08-07T09:11:43.398Z,20.42
2022-08-07T09:19:51.047Z,20.78
2022-08-07T09:26:34.049Z,20.90
2022-08-07T09:33:53.132Z,21.20
2022-08-07T09:41:22.335Z,21.20
2022-08-07T09:50:01.834Z,21.16
2022-08-07T09:56:37.450Z,21.50
2022-08-07T10:04:06.090Z,21.70
2022-08-07T10:12:00.056Z,21.60
2022-08-07T10:19:11.299Z,21.60
2022-08-07T10:26:38.193Z,21.50
2022-08-07T10:34:14.470Z,21.70
2022-08-07T10:41:51.651Z,21.70
2022-08-07T10:49:05.922Z,21.80
2022-08-07T10:56:31.081Z,22.10
2022-08-07T11:03:42.930Z,22.30
2022-08-07T11:11:00.048Z,22.50
2022-08-07T11:18:39.623Z,22.70
2022-08-07T11:25:23.260Z,23.00
2022-08-07T11:32:45.192Z,23.20
2022-08-07T11:40:00.328Z,23.34
2022-08-07T11:47:15.347Z,23.50
2022-08-07T11:54:36.413Z,23.80
2022-08-07T12:01:59.230Z,23.90
2022-08-07T12:09:16.515Z,23.80
2022-08-07T12:16:30.152Z,23.90
2022-08-07T12:23:37.399Z,23.40
2022-08-07T12:30:46.838Z,23.10
2022-08-07T12:38:09.562Z,23.34
2022-08-07T12:44:57.922Z,23.60
2022-08-07T12:52:13.939Z,24.00
2022-08-07T12:59:21.033Z,24.18
2022-08-07T13:06:35.804Z,24.00
2022-08-07T13:13:55.206Z,23.90
2022-08-07T13:21:23.602Z,23.70
2022-08-07T13:28:47.920Z,23.30
2022-08-07T13:36:17.639Z,23.20
2022-08-07T13:43:13.763Z,23.30
2022-08-07T13:50:33.064Z,23.20
2022-08-07T13:57:38.575Z,23.30
2022-08-07T14:04:49.378Z,23.58
2022-08-07T14:11:26.479Z,23.78
2022-08-07T14:18:30.488Z,23.70
2022-08-07T14:25:46.047Z,23.50
2022-08-07T14:32:51.509Z,23.30
2022-08-07T14:40:17.944Z,23.50
2022-08-07T14:54:41.994Z,23.90
2022-08-07T15:01:51.497Z,23.60
2022-08-07T15:08:56.071Z,23.20
2022-08-07T15:30:20.305Z,23.50
2022-08-07T15:36:09.733Z,23.60
2022-08-07T15:43:33.065Z,23.60
2022-08-07T15:51:07.810Z,23.30
2022-08-07T15:58:01.534Z,23.10
2022-08-07T16:05:04.581Z,23.10
2022-08-07T16:12:42.677Z,23.10
2022-08-07T16:20:12.035Z,22.90
2022-08-07T16:27:59.641Z,22.70
2022-08-07T16:35:52.438Z,22.60
2022-08-07T16:42:56.137Z,22.50
2022-08-07T16:50:28.842Z,22.50
2022-08-07T16:58:01.726Z,22.50
2022-08-07T17:06:19.514Z,22.30
2022-08-07T17:13:14.866Z,22.10
2022-08-07T17:20:21.854Z,21.96
2022-08-07T17:27:51.198Z,21.80
2022-08-07T17:35:33.044Z,21.70
2022-08-07T17:42:19.890Z,21.50
2022-08-07T17:49:39.363Z,21.40
2022-08-07T17:56:52.543Z,21.30
2022-08-07T18:04:16.258Z,21.10
2022-08-07T18:12:16.685Z,21.00
2022-08-07T18:21:03.777Z,20.80
2022-08-07T18:25:40.247Z,20.64
2022-08-07T18:32:46.555Z,20.50
2022-08-07T18:40:07.443Z,20.30
2022-08-07T18:47:22.776Z,20.12
2022-08-07T18:54:36.850Z,19.98
2022-08-07T19:02:19.190Z,19.80
2022-08-07T19:09:57.291Z,19.60
2022-08-07T19:17:59.149Z,19.50
2022-08-07T19:24:43.572Z,19.40
2022-08-07T19:32:08.174Z,19.20
2022-08-07T19:39:09.310Z,19.10
2022-08-07T19:46:15.755Z,19.02
2022-08-07T19:54:29.923Z,19.00
2022-08-07T20:00:54.273Z,18.80
2022-08-07T20:07:59.952Z,18.70
2022-08-07T20:15:09.723Z,18.60
2022-08-07T20:22:33.911Z,18.50
2022-08-07T20:29:47.819Z,18.50
2022-08-07T20:36:41.258Z,18.42
2022-08-07T20:43:27.058Z,18.40
2022-08-07T20:50:30.830Z,18.30
2022-08-07T20:57:35.971Z,18.30
2022-08-07T21:04:39.919Z,18.20
2022-08-07T21:11:50.080Z,18.10
2022-08-07T21:18:36.839Z,18.10
2022-08-07T21:25:56.808Z,18.10
2022-08-07T21:32:59.037Z,18.00
2022-08-07T21:40:36.078Z,17.98
2022-08-07T21:47:52.802Z,17.80
2022-08-07T21:55:08.241Z,17.72
2022-08-07T22:02:13.232Z,17.60
2022-08-07T22:09:19.877Z,17.50
2022-08-07T22:16:46.841Z,17.40
2022-08-07T22:23:59.873Z,17.30
2022-08-07T22:31:09.224Z,17.30
2022-08-07T22:38:24.324Z,17.20
2022-08-07T22:46:40.452Z,17.20
2022-08-07T22:53:15.142Z,17.20
2022-08-07T23:00:28.440Z,17.20
2022-08-07T23:07:41.485Z,17.10
2022-08-07T23:14:36.532Z,17.18
2022-08-07T23:21:38.920Z,17.10
2022-08-07T23:28:56.528Z,17.10
2022-08-07T23:36:08.367Z,17.00
2022-08-07T23:43:18.510Z,16.90
2022-08-07T23:50:26.147Z,16.80
2022-08-07T23:57:47.444Z,16.70
